Waukomis, Oklahoma
Current Conditions -  °F | °C
As of 3:58 AM on Tuesday 27 Jan 2015 (Local Time) from KEND Reporting Station
Clear Clear  
Wind Chill: 36°   Ceiling: Unl
Heat Index: 41°   Visibility: 10mi
Dew Point: 31°   Wind: 7mph
Humidity: 68%   Direction: 330°NNW
Pressure: 30.09"   Gusts: NA
Location:  36.28°N, 97.9°W
Report Text: KEND 270958Z AUTO 33006KT 10SM CLR 05/00 A3009 RMK AO2 SLP189 T00491005 $
Loading
Personal Weather Stations






























Interactive Weather Map New forecast layout! Learn more

10-Day Weather Forecast

Advertisements
Track Severe Weather on mobile